Time;durP1;ratioP1;P1;durP2;ratioP2;P2;SDS_P1;SDS_P2;PMS_P1;PMS_P2;Temp;Humidity;BMP_temperature;BMP_pressure;BME280_temperature;BME280_humidity;BME280_pressure;Samples;Min_cycle;Max_cycle;Signal;HPM_P1;HPM_P2
2022/07/19 00:01:49;;;;;;;10.77;3.60;;;;;;;21.90;46.06;100772.53;5035546;27;96907;-73
2022/07/19 00:04:14;;;;;;;11.82;3.92;;;;;;;21.91;46.34;100765.38;5028980;27;97448;-73
2022/07/19 00:06:40;;;;;;;13.18;3.47;;;;;;;22.02;45.95;100767.22;5037612;27;100738;-73
2022/07/19 00:09:05;;;;;;;9.30;3.28;;;;;;;22.10;45.86;100768.34;5074628;27;97198;-74
2022/07/19 00:11:31;;;;;;;10.93;2.72;;;;;;;22.11;45.75;100778.09;5038989;27;97043;-73
2022/07/19 00:13:56;;;;;;;11.15;3.45;;;;;;;22.06;46.03;100771.38;5021504;27;100957;-72
2022/07/19 00:16:22;;;;;;;9.57;3.60;;;;;;;22.00;46.37;100772.69;5020022;27;101258;-73
2022/07/19 00:18:47;;;;;;;12.75;3.58;;;;;;;21.99;46.55;100775.47;5033544;27;96819;-73
2022/07/19 00:21:13;;;;;;;8.30;2.97;;;;;;;21.88;46.54;100763.75;5028222;27;96854;-73
2022/07/19 00:23:38;;;;;;;7.95;3.47;;;;;;;21.90;46.62;100772.53;5049310;27;101551;-74
2022/07/19 00:26:04;;;;;;;12.82;4.07;;;;;;;21.69;46.64;100742.88;5056361;27;97459;-71
2022/07/19 00:28:30;;;;;;;10.65;3.33;;;;;;;21.87;46.57;100771.88;5052014;27;96649;-72
2022/07/19 00:30:55;;;;;;;7.57;2.90;;;;;;;21.82;47.07;100774.06;5038735;27;97097;-73
2022/07/19 00:33:21;;;;;;;8.25;3.83;;;;;;;21.64;47.01;100753.09;5030704;27;101114;-73
2022/07/19 00:35:46;;;;;;;11.30;3.53;;;;;;;21.57;47.66;100772.34;5072935;27;97509;-72
2022/07/19 00:38:13;;;;;;;7.07;3.55;;;;;;;21.52;47.75;100775.31;5048996;27;97080;-80
2022/07/19 00:40:42;;;;;;;10.35;3.58;;;;;;;21.51;47.82;100770.97;5047525;27;96889;-74
2022/07/19 00:43:09;;;;;;;10.13;3.60;;;;;;;21.56;47.64;100773.31;5037535;27;101320;-73
2022/07/19 00:45:35;;;;;;;8.57;3.00;;;;;;;21.65;47.78;100777.97;5021151;27;100598;-72
2022/07/19 00:48:01;;;;;;;7.82;3.20;;;;;;;21.40;47.96;100766.38;5051638;27;96730;-72
2022/07/19 00:50:27;;;;;;;7.93;3.08;;;;;;;21.46;47.88;100765.94;5067630;27;97220;-73
2022/07/19 00:52:56;;;;;;;9.98;3.10;;;;;;;21.35;48.45;100776.53;5036961;27;101079;-72
2022/07/19 00:55:22;;;;;;;10.48;3.25;;;;;;;21.34;48.04;100753.44;5054491;27;97399;-73
2022/07/19 00:57:48;;;;;;;9.18;3.00;;;;;;;21.46;48.26;100773.94;5038785;27;97085;-72
2022/07/19 01:00:16;;;;;;;6.82;2.85;;;;;;;21.42;48.18;100777.81;5041606;27;98082;-79
2022/07/19 01:02:42;;;;;;;9.15;2.90;;;;;;;21.28;48.73;100772.59;5034831;27;101159;-73
2022/07/19 01:05:09;;;;;;;11.85;3.03;;;;;;;21.24;48.73;100771.97;5019071;27;101171;-72
2022/07/19 01:07:35;;;;;;;8.68;2.70;;;;;;;21.13;49.19;100755.84;5047368;27;96853;-75
2022/07/19 01:10:05;;;;;;;7.28;3.10;;;;;;;21.27;48.68;100760.22;5047937;27;96710;-74
2022/07/19 01:12:32;;;;;;;9.00;3.27;;;;;;;21.28;48.86;100766.41;5054147;27;99367;-72
2022/07/19 01:14:58;;;;;;;8.82;3.22;;;;;;;21.19;48.88;100771.44;5054430;27;97952;-73
2022/07/19 01:17:24;;;;;;;13.18;3.80;;;;;;;21.04;49.50;100769.84;5072093;27;96611;-73
2022/07/19 01:19:49;;;;;;;10.32;2.83;;;;;;;20.89;50.11;100776.28;5064702;27;96960;-73
2022/07/19 01:22:15;;;;;;;9.80;3.60;;;;;;;20.78;50.11;100775.19;5050312;27;100865;-80
2022/07/19 01:24:40;;;;;;;8.60;3.85;;;;;;;20.73;50.31;100774.66;5046403;27;98049;-73
2022/07/19 01:27:07;;;;;;;6.13;3.10;;;;;;;20.85;50.16;100774.78;5057084;27;97142;-73
2022/07/19 01:29:36;;;;;;;12.05;3.33;;;;;;;20.95;49.77;100773.19;5034172;27;96821;-72
2022/07/19 01:32:05;;;;;;;8.25;3.83;;;;;;;20.71;50.15;100752.59;5032009;27;100952;-73
2022/07/19 01:34:31;;;;;;;8.90;3.78;;;;;;;20.84;49.87;100763.25;5053389;27;97833;-73
2022/07/19 01:36:57;;;;;;;12.00;3.03;;;;;;;20.84;50.01;100760.59;5051945;27;96702;-73
2022/07/19 01:39:22;;;;;;;9.18;3.15;;;;;;;20.71;50.33;100768.59;5036120;27;96976;-73
2022/07/19 01:41:48;;;;;;;7.50;3.40;;;;;;;20.62;50.60;100757.69;5036627;27;101303;-73
2022/07/19 01:44:15;;;;;;;11.07;3.30;;;;;;;20.60;50.63;100765.81;5038084;27;97323;-73
2022/07/19 01:46:41;;;;;;;10.43;3.70;;;;;;;20.51;50.79;100763.75;5071420;27;96668;-73
2022/07/19 01:49:07;;;;;;;7.70;3.22;;;;;;;20.44;51.15;100768.63;5039035;27;96813;-72
2022/07/19 01:51:32;;;;;;;7.25;3.00;;;;;;;20.40;51.29;100774.28;5055091;27;97718;-73
2022/07/19 01:53:58;;;;;;;8.93;3.83;;;;;;;20.38;51.20;100770.88;5058148;27;98118;-73
2022/07/19 01:56:23;;;;;;;11.02;3.83;;;;;;;20.29;51.56;100769.69;5036016;27;96682;-73
2022/07/19 01:58:49;;;;;;;7.68;3.38;;;;;;;20.30;51.64;100771.38;5039835;27;97232;-73
2022/07/19 02:01:14;;;;;;;14.18;3.53;;;;;;;20.27;51.59;100775.09;5048006;27;98236;-73
2022/07/19 02:03:40;;;;;;;13.38;3.80;;;;;;;20.18;52.11;100765.06;5019388;27;99276;-72
2022/07/19 02:06:05;;;;;;;10.40;3.85;;;;;;;20.20;52.09;100765.81;5029174;27;96511;-73
2022/07/19 02:08:31;;;;;;;15.27;3.80;;;;;;;20.15;52.19;100761.75;5037018;27;96859;-73
2022/07/19 02:10:58;;;;;;;8.43;3.35;;;;;;;20.03;52.54;100758.94;5009967;27;101353;-72
2022/07/19 02:13:26;;;;;;;7.28;3.30;;;;;;;20.15;52.07;100756.44;5065668;27;101442;-73
2022/07/19 02:15:52;;;;;;;6.60;3.20;;;;;;;20.20;51.81;100756.97;5065176;27;98238;-73
2022/07/19 02:18:18;;;;;;;8.32;3.15;;;;;;;20.15;51.80;100754.59;5023509;27;97260;-73
2022/07/19 02:20:43;;;;;;;7.32;3.30;;;;;;;19.97;52.47;100754.03;5035805;27;101715;-72
2022/07/19 02:23:09;;;;;;;6.90;4.13;;;;;;;19.92;52.55;100739.31;5032580;27;97507;-72
2022/07/19 02:25:34;;;;;;;9.43;3.92;;;;;;;20.08;52.34;100756.00;5037654;27;96556;-72
2022/07/19 02:28:00;;;;;;;7.63;3.28;;;;;;;19.96;52.51;100749.66;5024012;27;97263;-72
2022/07/19 02:30:26;;;;;;;10.45;4.28;;;;;;;20.04;52.46;100771.34;5056982;27;97625;-73
2022/07/19 02:32:51;;;;;;;17.80;3.53;;;;;;;19.82;52.84;100747.91;5029750;27;101210;-73
2022/07/19 02:35:18;;;;;;;10.85;3.83;;;;;;;19.96;52.79;100767.47;5075150;27;96984;-73
2022/07/19 02:37:43;;;;;;;12.38;4.30;;;;;;;19.92;52.69;100764.13;5040054;27;97670;-72
2022/07/19 02:40:10;;;;;;;17.75;4.63;;;;;;;19.84;53.20;100762.00;5057558;27;97764;-73
2022/07/19 02:42:35;;;;;;;11.65;3.88;;;;;;;20.06;52.76;100768.56;5040646;27;97316;-73
2022/07/19 02:45:01;;;;;;;14.52;3.85;;;;;;;20.03;52.82;100766.94;5030298;28;96657;-72
2022/07/19 02:47:26;;;;;;;15.50;4.60;;;;;;;19.95;52.73;100753.28;5024764;28;97019;-74
2022/07/19 02:49:52;;;;;;;14.60;4.25;;;;;;;19.94;52.91;100737.41;5017579;28;101279;-73
2022/07/19 02:52:17;;;;;;;13.77;4.13;;;;;;;19.97;53.28;100772.69;5012401;28;101241;-73
2022/07/19 02:54:43;;;;;;;9.02;3.40;;;;;;;20.01;53.17;100770.66;5010688;28;96837;-73
2022/07/19 02:57:08;;;;;;;13.82;4.55;;;;;;;20.04;53.00;100770.47;5013825;28;96793;-72
2022/07/19 02:59:34;;;;;;;11.93;3.35;;;;;;;19.97;53.42;100783.34;5026074;27;97660;-73
2022/07/19 03:01:59;;;;;;;11.07;3.28;;;;;;;20.05;53.07;100781.03;5013647;28;97345;-73
2022/07/19 03:04:25;;;;;;;8.45;3.30;;;;;;;19.99;53.09;100776.13;4995797;28;97315;-79
2022/07/19 03:06:50;;;;;;;7.95;3.75;;;;;;;20.00;53.25;100777.81;5013332;28;96975;-73
2022/07/19 03:09:16;;;;;;;14.07;3.78;;;;;;;20.02;53.00;100778.56;5015647;28;101549;-73
2022/07/19 03:11:42;;;;;;;10.23;3.42;;;;;;;20.07;52.78;100779.13;5013678;28;99688;-73
2022/07/19 03:14:10;;;;;;;11.85;3.95;;;;;;;20.20;52.71;100768.50;5025403;28;96943;-72
2022/07/19 03:16:36;;;;;;;11.75;3.40;;;;;;;20.10;52.30;100746.06;5027052;28;96833;-73
2022/07/19 03:19:01;;;;;;;8.13;3.80;;;;;;;20.15;52.58;100775.94;5001979;28;97630;-72
2022/07/19 03:21:27;;;;;;;17.65;3.85;;;;;;;20.03;53.05;100774.94;5022260;28;97936;-79
2022/07/19 03:23:52;;;;;;;8.40;3.83;;;;;;;20.10;52.86;100786.91;5013218;28;97897;-73
2022/07/19 03:26:18;;;;;;;10.65;3.20;;;;;;;20.12;52.55;100773.47;5016840;28;96947;-73
2022/07/19 03:28:43;;;;;;;11.55;3.85;;;;;;;20.18;52.18;100789.03;4998235;28;101239;-73
2022/07/19 03:31:09;;;;;;;11.00;3.85;;;;;;;20.14;52.42;100784.88;5034190;28;97870;-72
2022/07/19 03:33:35;;;;;;;10.02;3.92;;;;;;;20.22;51.92;100771.91;5012283;28;96690;-73
2022/07/19 03:36:00;;;;;;;10.38;3.88;;;;;;;20.13;52.19;100772.53;5032089;28;96862;-72
2022/07/19 03:38:26;;;;;;;11.63;3.78;;;;;;;20.07;52.50;100779.13;5029264;28;98160;-74
2022/07/19 03:40:51;;;;;;;13.00;3.55;;;;;;;20.07;52.29;100775.56;5031264;28;97665;-73
2022/07/19 03:43:17;;;;;;;12.27;4.20;;;;;;;19.90;52.42;100774.06;5015626;28;97239;-73
2022/07/19 03:45:44;;;;;;;9.55;3.75;;;;;;;19.85;52.00;100773.50;5015305;28;97031;-73
2022/07/19 03:48:09;;;;;;;12.55;4.38;;;;;;;19.85;52.02;100768.16;5015305;28;101039;-73
2022/07/19 03:50:35;;;;;;;8.35;3.40;;;;;;;19.57;52.27;100756.59;5012584;28;97838;-73
2022/07/19 03:53:00;;;;;;;7.95;3.22;;;;;;;19.78;52.06;100778.38;5009171;28;96880;-73
2022/07/19 03:55:26;;;;;;;6.15;3.00;;;;;;;19.63;51.77;100774.00;5004569;28;97003;-73
2022/07/19 03:57:51;;;;;;;7.10;3.47;;;;;;;19.73;51.69;100782.28;5029168;28;101311;-73
2022/07/19 04:00:17;;;;;;;8.55;3.45;;;;;;;19.68;51.81;100790.56;4998363;28;101255;-72
2022/07/19 04:02:42;;;;;;;13.63;3.80;;;;;;;19.78;52.04;100786.38;5032350;28;96644;-73
2022/07/19 04:05:08;;;;;;;8.45;3.35;;;;;;;19.68;51.93;100770.13;4999100;28;97435;-72
2022/07/19 04:07:34;;;;;;;10.32;3.35;;;;;;;19.85;51.60;100787.66;5011619;28;98012;-73
2022/07/19 04:10:00;;;;;;;7.25;3.10;;;;;;;19.61;51.88;100758.13;5025617;28;97361;-73
2022/07/19 04:12:25;;;;;;;10.18;3.90;;;;;;;19.68;52.04;100783.44;5000741;28;97084;-73
2022/07/19 04:14:50;;;;;;;8.18;3.30;;;;;;;19.61;51.91;100765.28;5028335;28;97174;-75
2022/07/19 04:17:17;;;;;;;7.70;3.10;;;;;;;19.76;52.09;100779.44;5015511;28;98057;-73
2022/07/19 04:19:42;;;;;;;7.32;3.08;;;;;;;19.74;51.81;100782.19;5014441;28;100900;-73
2022/07/19 04:22:08;;;;;;;7.78;3.20;;;;;;;19.71;51.84;100768.22;5029446;28;96693;-72
2022/07/19 04:24:33;;;;;;;6.63;3.28;;;;;;;19.88;51.79;100789.28;5000818;28;97354;-73
2022/07/19 04:26:59;;;;;;;7.65;2.85;;;;;;;19.97;51.38;100788.66;5009387;28;101984;-73
2022/07/19 04:29:24;;;;;;;6.05;2.90;;;;;;;20.04;51.16;100795.31;5005699;28;101033;-73
2022/07/19 04:31:50;;;;;;;7.55;3.40;;;;;;;20.24;50.53;100788.63;5010594;28;98365;-74
2022/07/19 04:34:15;;;;;;;7.22;2.97;;;;;;;20.22;50.35;100779.06;5030712;28;96768;-73
2022/07/19 04:36:41;;;;;;;7.28;3.08;;;;;;;20.26;50.36;100794.72;5031380;28;97645;-73
2022/07/19 04:39:06;;;;;;;6.53;3.22;;;;;;;20.17;50.25;100776.69;5015002;28;101589;-72
2022/07/19 04:41:31;;;;;;;12.50;3.03;;;;;;;20.18;50.54;100796.19;5021287;27;96748;-78
2022/07/19 04:43:57;;;;;;;9.13;3.67;;;;;;;20.09;50.66;100793.19;5038345;27;96844;-73
2022/07/19 04:46:22;;;;;;;10.23;3.30;;;;;;;20.25;50.79;100809.03;5035494;27;101851;-73
2022/07/19 04:48:48;;;;;;;8.65;3.28;;;;;;;20.51;50.49;100809.09;5036927;27;98363;-72
2022/07/19 04:51:13;;;;;;;8.23;3.03;;;;;;;20.68;50.78;100806.16;5038300;27;96656;-72
2022/07/19 04:53:39;;;;;;;13.73;4.65;;;;;;;20.83;49.22;100776.69;5037526;27;96845;-73
2022/07/19 04:56:04;;;;;;;9.13;2.90;;;;;;;21.07;49.52;100807.00;5036681;27;97591;-73
2022/07/19 04:58:30;;;;;;;12.05;3.95;;;;;;;21.23;49.62;100807.63;5073737;27;97831;-72
2022/07/19 05:00:56;;;;;;;12.52;3.35;;;;;;;21.26;48.84;100774.50;5038178;27;96618;-73
2022/07/19 05:03:21;;;;;;;13.52;3.13;;;;;;;21.44;47.98;100796.41;5012756;27;96910;-73
2022/07/19 05:05:47;;;;;;;10.95;3.42;;;;;;;21.60;47.86;100793.47;5072380;27;97484;-73
2022/07/19 05:08:13;;;;;;;10.38;3.38;;;;;;;21.55;47.59;100792.94;5071573;27;100799;-73
2022/07/19 05:10:38;;;;;;;11.13;4.53;;;;;;;21.68;47.79;100793.78;5040387;27;96761;-73
2022/07/19 05:13:04;;;;;;;9.98;3.45;;;;;;;21.89;47.32;100788.66;5032744;27;96884;-73
2022/07/19 05:15:30;;;;;;;6.57;3.40;;;;;;;22.03;46.98;100788.50;5055078;27;97755;-73
2022/07/19 05:17:55;;;;;;;5.00;2.92;;;;;;;22.17;46.66;100795.53;5017134;27;99898;-73
2022/07/19 05:20:21;;;;;;;8.48;3.15;;;;;;;22.40;46.57;100787.56;5056172;27;96804;-77
2022/07/19 05:22:46;;;;;;;7.18;2.80;;;;;;;22.54;46.12;100788.22;5035848;27;96929;-73
2022/07/19 05:25:12;;;;;;;12.95;3.70;;;;;;;22.85;46.12;100791.19;5035416;27;97771;-73
2022/07/19 05:27:37;;;;;;;10.18;3.30;;;;;;;23.03;45.20;100767.50;5037774;27;101476;-79
2022/07/19 05:30:04;;;;;;;6.35;2.97;;;;;;;23.21;44.32;100778.56;5067248;27;96615;-73
2022/07/19 05:32:30;;;;;;;9.57;2.33;;;;;;;23.45;43.91;100781.97;5076573;27;97104;-73
2022/07/19 05:34:55;;;;;;;6.43;2.70;;;;;;;23.67;42.75;100770.34;5010711;27;100962;-75
2022/07/19 05:37:21;;;;;;;7.22;2.75;;;;;;;24.03;41.75;100776.38;5038103;27;97448;-73
2022/07/19 05:39:46;;;;;;;6.82;2.25;;;;;;;24.00;41.04;100778.44;5051773;27;98460;-73
2022/07/19 05:42:12;;;;;;;4.80;2.40;;;;;;;24.17;40.87;100773.38;5042035;27;98055;-73
2022/07/19 05:44:37;;;;;;;7.10;2.30;;;;;;;24.26;40.58;100752.97;5024724;27;101248;-79
2022/07/19 05:47:02;;;;;;;6.47;2.33;;;;;;;24.67;40.03;100771.88;5035395;27;101058;-73
2022/07/19 05:49:28;;;;;;;4.95;2.10;;;;;;;25.40;39.49;100767.31;5037172;27;96827;-73
2022/07/19 05:51:54;;;;;;;3.40;2.15;;;;;;;26.15;38.33;100763.16;5052541;27;97120;-75
2022/07/19 05:54:19;;;;;;;16.70;15.40;;;;;;;26.62;36.05;100755.22;5041188;27;98545;-76
2022/07/19 05:56:44;;;;;;;15.68;14.27;;;;;;;27.72;35.48;100768.78;5047250;27;101157;-75
2022/07/19 05:59:10;;;;;;;12.45;9.25;;;;;;;28.48;33.96;100751.28;5044761;27;97326;-73
2022/07/19 06:01:36;;;;;;;12.00;9.50;;;;;;;28.68;32.33;100754.59;5073679;27;96949;-74
2022/07/19 06:04:01;;;;;;;7.70;5.93;;;;;;;28.54;32.40;100764.13;5047485;27;97551;-74
2022/07/19 06:06:29;;;;;;;15.80;14.30;;;;;;;28.39;32.70;100766.53;5057644;27;98034;-74
2022/07/19 06:08:55;;;;;;;8.95;2.08;;;;;;;28.72;33.05;100764.09;5067048;27;97401;-73
2022/07/19 06:11:22;;;;;;;8.65;2.65;;;;;;;29.60;31.76;100750.28;5038919;27;97488;-74
2022/07/19 06:13:49;;;;;;;11.18;2.80;;;;;;;31.07;29.85;100762.97;5030189;27;97463;-74
2022/07/19 06:16:14;;;;;;;5.82;2.38;;;;;;;32.19;28.55;100760.81;5038975;27;97638;-74
2022/07/19 06:18:40;;;;;;;8.63;2.53;;;;;;;32.73;28.56;100757.13;5037505;27;96703;-74
2022/07/19 06:21:14;;;;;;;4.68;2.25;;;;;;;33.10;26.81;100745.28;5023215;27;96977;-74
2022/07/19 06:23:40;;;;;;;5.53;2.30;;;;;;;33.59;26.93;100761.00;5037959;27;98079;-74
2022/07/19 06:26:07;;;;;;;6.50;2.17;;;;;;;34.09;26.21;100751.03;5036336;27;98067;-74
2022/07/19 06:28:32;;;;;;;19.25;17.70;;;;;;;34.40;26.18;100752.56;5043402;27;96869;-74
2022/07/19 06:30:58;;;;;;;43.40;36.72;;;;;;;35.22;25.24;100751.00;5038044;27;97241;-73
2022/07/19 06:33:23;;;;;;;19.45;17.85;;;;;;;35.51;25.09;100747.13;5038838;27;102908;-82
2022/07/19 06:35:49;;;;;;;40.25;35.40;;;;;;;35.96;24.76;100739.28;5032765;27;97891;-82
2022/07/19 06:38:15;;;;;;;42.95;37.78;;;;;;;36.34;24.41;100747.69;5040251;27;96835;-82
2022/07/19 06:40:40;;;;;;;33.25;29.90;;;;;;;36.75;24.09;100735.69;5016892;27;97017;-84
2022/07/19 06:43:06;;;;;;;33.78;29.05;;;;;;;36.50;24.13;100728.13;5014563;27;101539;-82
2022/07/19 06:45:31;;;;;;;23.85;21.75;;;;;;;36.83;23.75;100729.97;5030369;27;101556;-82
2022/07/19 06:47:57;;;;;;;21.95;20.02;;;;;;;37.27;23.26;100733.00;5033689;27;96844;-82
2022/07/19 06:50:23;;;;;;;25.20;23.10;;;;;;;37.34;23.23;100728.31;5046466;27;97244;-83
2022/07/19 06:52:48;;;;;;;12.60;11.02;;;;;;;37.10;23.35;100717.06;5036161;27;101642;-83
2022/07/19 06:55:14;;;;;;;30.10;26.67;;;;;;;37.90;22.87;100733.03;5021526;27;97541;-84
2022/07/19 06:57:39;;;;;;;7.22;2.92;;;;;;;38.96;22.16;100713.97;5048200;27;97687;-83
2022/07/19 07:00:07;;;;;;;8.73;3.33;;;;;;;39.41;21.28;100719.06;5030076;27;97342;-83
2022/07/19 07:02:33;;;;;;;9.65;3.55;;;;;;;39.43;21.50;100719.69;5011829;27;101557;-82
2022/07/19 07:04:58;;;;;;;11.60;9.93;;;;;;;38.91;21.60;100723.69;5019566;27;101275;-83
2022/07/19 07:07:24;;;;;;;10.55;9.32;;;;;;;38.87;21.86;100708.78;5038539;27;96742;-83
2022/07/19 07:09:49;;;;;;;11.18;7.45;;;;;;;39.49;21.48;100707.78;5037624;27;97222;-83
2022/07/19 07:12:15;;;;;;;16.75;15.20;;;;;;;40.32;20.64;100714.28;5020603;27;100873;-83
2022/07/19 07:14:40;;;;;;;5.25;2.42;;;;;;;40.61;19.89;100717.94;5019146;27;101523;-83
2022/07/19 07:17:06;;;;;;;55.08;49.22;;;;;;;40.81;20.00;100712.09;5039403;27;97156;-83
2022/07/19 07:19:31;;;;;;;60.60;54.20;;;;;;;40.91;19.75;100724.16;5031010;27;97365;-83
2022/07/19 07:22:01;;;;;;;11.35;10.23;;;;;;;41.80;19.22;100718.19;5036287;27;102136;-84
2022/07/19 07:24:27;;;;;;;13.20;12.15;;;;;;;41.74;19.30;100721.91;5034403;27;101621;-83
2022/07/19 07:26:53;;;;;;;12.48;11.25;;;;;;;42.00;18.79;100711.34;5032445;27;96841;-83
2022/07/19 07:29:18;;;;;;;12.27;11.38;;;;;;;41.87;18.68;100712.50;5033061;27;97124;-83
2022/07/19 07:31:43;;;;;;;12.90;11.90;;;;;;;42.33;18.41;100707.78;5023727;27;101674;-86
2022/07/19 07:34:09;;;;;;;11.57;10.82;;;;;;;42.63;18.50;100714.81;5026705;27;98471;-83
2022/07/19 07:36:35;;;;;;;12.13;11.32;;;;;;;43.00;17.94;100711.41;5036359;27;96637;-83
2022/07/19 07:39:00;;;;;;;15.27;14.07;;;;;;;43.04;17.93;100715.34;5037990;27;96856;-83
2022/07/19 07:41:26;;;;;;;13.30;12.20;;;;;;;42.62;18.24;100710.34;5033227;27;100982;-86
2022/07/19 07:43:51;;;;;;;12.90;10.70;;;;;;;42.84;18.02;100711.22;5010631;27;100881;-82
2022/07/19 07:46:17;;;;;;;11.95;10.82;;;;;;;42.84;17.65;100707.66;5030315;27;97413;-83
2022/07/19 07:48:42;;;;;;;10.75;9.95;;;;;;;42.85;17.45;100717.59;5030307;27;97296;-81
2022/07/19 07:51:08;;;;;;;12.05;11.07;;;;;;;42.99;17.52;100720.78;5027912;27;101533;-86
2022/07/19 07:53:33;;;;;;;11.48;10.45;;;;;;;43.32;17.23;100714.31;5029955;27;101540;-86
2022/07/19 07:55:59;;;;;;;11.73;10.93;;;;;;;43.15;17.80;100714.41;5029588;27;97252;-85
2022/07/19 07:58:24;;;;;;;11.95;11.00;;;;;;;43.31;16.93;100712.63;5029512;27;97819;-85
2022/07/19 08:00:50;;;;;;;11.75;11.05;;;;;;;43.21;16.99;100695.97;5026492;27;101458;-85
2022/07/19 08:03:17;;;;;;;12.43;11.43;;;;;;;43.64;16.79;100711.63;5049906;27;101518;-86
2022/07/19 08:05:48;;;;;;;12.05;10.82;;;;;;;43.56;16.76;100709.31;5029270;27;97366;-85
2022/07/19 08:08:16;;;;;;;11.75;10.73;;;;;;;43.60;16.74;100711.28;5031263;27;96962;-85
2022/07/19 08:10:42;;;;;;;;;;;;;;;42.91;16.57;100717.41;5025825;27;100905;-89
2022/07/19 08:13:07;;;;;;;13.30;11.50;;;;;;;43.29;16.70;100695.47;5029562;27;105207;-78
2022/07/19 08:15:34;;;;;;;12.25;11.25;;;;;;;43.80;15.36;100705.09;5046891;27;97222;-78
2022/07/19 08:17:59;;;;;;;13.02;12.13;;;;;;;43.33;16.59;100710.44;5044743;27;97014;-79
2022/07/19 08:20:25;;;;;;;12.82;11.95;;;;;;;43.68;15.98;100703.63;5018541;27;101826;-77
2022/07/19 08:22:50;;;;;;;12.07;11.38;;;;;;;43.98;15.65;100703.88;5047783;27;97583;-77
2022/07/19 08:25:16;;;;;;;12.75;11.95;;;;;;;43.96;15.40;100694.22;5038818;27;96685;-77
2022/07/19 08:27:43;;;;;;;12.48;11.68;;;;;;;44.30;15.69;100694.69;5049331;27;97129;-77
2022/07/19 08:30:09;;;;;;;12.98;12.10;;;;;;;44.41;16.04;100695.63;5063144;27;97626;-77
2022/07/19 08:32:35;;;;;;;12.52;11.63;;;;;;;44.45;15.37;100677.38;5031881;27;99977;-74
2022/07/19 08:35:00;;;;;;;13.05;12.13;;;;;;;44.57;15.43;100686.31;5038981;27;97061;-75
2022/07/19 08:37:26;;;;;;;13.25;12.32;;;;;;;44.97;15.33;100688.41;5050948;27;97763;-75
2022/07/19 08:39:51;;;;;;;14.02;13.13;;;;;;;45.21;15.42;100695.41;5033694;27;97488;-75
2022/07/19 08:42:21;;;;;;;13.15;12.25;;;;;;;45.16;14.50;100687.94;5031402;27;101551;-76
2022/07/19 08:44:48;;;;;;;12.65;11.70;;;;;;;45.20;15.18;100677.97;5033498;27;97285;-78
2022/07/19 08:47:14;;;;;;;12.43;11.57;;;;;;;45.49;15.20;100686.59;5040202;27;97289;-75
2022/07/19 08:49:42;;;;;;;12.35;11.45;;;;;;;45.12;14.73;100678.47;5045788;27;99690;-76
2022/07/19 08:52:07;;;;;;;12.63;11.80;;;;;;;44.79;15.34;100688.06;5039984;27;101588;-75
2022/07/19 08:54:33;;;;;;;13.07;12.05;;;;;;;45.03;14.61;100680.13;5038207;27;97094;-75
2022/07/19 08:59:43;;;;;;;12.70;11.90;;;;;;;45.46;14.81;100678.00;5042619;27;101193;-76
2022/07/19 09:02:09;;;;;;;12.75;11.93;;;;;;;45.00;14.95;100675.13;5047580;27;101491;-75
2022/07/19 09:04:34;;;;;;;12.48;11.60;;;;;;;44.94;14.69;100675.09;5057313;27;96982;-75
2022/07/19 09:06:59;;;;;;;12.23;11.15;;;;;;;44.67;14.85;100666.97;5031853;27;97980;-75
2022/07/19 09:09:34;;;;;;;11.25;10.55;;;;;;;44.94;15.26;100660.44;5037226;27;97429;-77
2022/07/19 09:12:01;;;;;;;11.85;11.10;;;;;;;44.15;15.43;100670.53;5032294;27;98069;-76
2022/07/19 09:14:28;;;;;;;11.63;10.77;;;;;;;43.71;15.23;100665.22;5050327;27;96858;-75
2022/07/19 09:17:19;;;;;;;11.77;10.97;;;;;;;43.27;15.72;100668.13;5024102;27;97207;-75
2022/07/19 09:19:46;;;;;;;12.40;11.27;;;;;;;42.82;16.38;100668.44;5029041;27;101245;-77
2022/07/19 09:22:19;;;;;;;11.40;10.70;;;;;;;42.08;16.66;100666.00;5018188;27;97337;-75
2022/07/19 09:24:50;;;;;;;10.82;9.98;;;;;;;41.85;16.94;100673.34;5031759;27;97138;-74
2022/07/19 09:27:22;;;;;;;11.88;10.95;;;;;;;41.59;17.40;100674.84;5036634;27;97372;-76
2022/07/19 09:29:53;;;;;;;11.27;10.50;;;;;;;41.22;17.50;100664.22;5046817;27;97924;-76
2022/07/19 09:32:21;;;;;;;10.75;9.85;;;;;;;41.01;17.65;100673.97;5055429;27;101595;-75
2022/07/19 09:34:51;;;;;;;10.95;10.18;;;;;;;40.99;17.44;100672.56;5014774;27;96864;-78
2022/07/19 09:37:18;;;;;;;10.63;9.88;;;;;;;40.72;17.61;100671.19;5043702;27;97074;-76
2022/07/19 09:39:47;;;;;;;11.70;10.75;;;;;;;40.38;17.65;100661.94;5018902;27;98541;-78
2022/07/19 09:42:15;;;;;;;13.43;10.10;;;;;;;39.97;18.02;100665.59;5028295;27;101559;-76
2022/07/19 09:44:41;;;;;;;10.98;9.95;;;;;;;39.72;18.87;100661.13;5030028;27;97387;-84
2022/07/19 09:47:06;;;;;;;10.20;9.50;;;;;;;39.82;18.59;100663.31;5045933;27;97328;-83
2022/07/19 09:49:32;;;;;;;10.60;9.75;;;;;;;39.39;18.85;100643.28;5039155;27;98085;-83
2022/07/19 09:51:58;;;;;;;10.48;9.50;;;;;;;39.07;18.53;100661.88;5043639;27;101550;-79
2022/07/19 09:54:28;;;;;;;10.00;9.30;;;;;;;38.92;18.93;100661.44;5013932;27;97559;-79
2022/07/19 09:56:54;;;;;;;9.90;9.10;;;;;;;38.79;19.66;100662.41;5050046;27;96982;-85
2022/07/19 09:59:21;;;;;;;11.13;9.50;;;;;;;38.21;22.14;100660.09;5047659;27;98362;-85
2022/07/19 10:01:48;;;;;;;9.77;8.88;;;;;;;38.01;20.59;100652.06;5029240;27;101855;-82
2022/07/19 10:04:19;;;;;;;9.13;8.48;;;;;;;37.32;22.12;100653.78;5047455;27;97108;-85
2022/07/19 10:06:46;;;;;;;9.40;8.48;;;;;;;36.97;21.14;100654.16;5033300;27;98406;-81
2022/07/19 10:09:20;;;;;;;10.77;9.70;;;;;;;36.60;21.54;100653.91;5045106;27;98200;-82
2022/07/19 10:11:46;;;;;;;9.98;9.30;;;;;;;36.16;21.70;100647.25;5044672;27;101937;-81
2022/07/19 10:14:12;;;;;;;9.93;8.70;;;;;;;36.00;22.39;100648.50;5032836;27;97267;-79
2022/07/19 10:16:58;;;;;;;9.40;8.52;;;;;;;35.83;23.10;100648.06;5036515;27;97221;-80
2022/07/19 10:19:42;;;;;;;9.27;8.50;;;;;;;35.54;22.96;100640.25;5048628;27;101271;-78
2022/07/19 10:22:12;;;;;;;9.40;8.18;;;;;;;35.48;23.42;100652.00;5034086;27;101358;-78
2022/07/19 10:24:42;;;;;;;9.38;8.55;;;;;;;35.28;24.24;100644.63;5037773;27;97256;-79
2022/07/19 10:27:08;;;;;;;8.45;7.85;;;;;;;35.17;23.89;100633.47;5049109;27;97516;-80
2022/07/19 10:29:33;;;;;;;10.05;8.50;;;;;;;35.07;24.04;100636.59;5035828;27;100908;-79
2022/07/19 10:32:10;;;;;;;8.60;7.82;;;;;;;34.95;24.45;100638.22;5042529;27;97519;-79
2022/07/19 10:34:36;;;;;;;9.27;8.40;;;;;;;34.69;23.83;100639.78;5036105;27;96799;-79
2022/07/19 10:37:03;;;;;;;10.65;8.70;;;;;;;34.51;23.89;100639.47;5030451;27;97299;-82
2022/07/19 10:39:34;;;;;;;9.02;8.30;;;;;;;34.34;23.96;100638.94;5028716;27;97468;-80
2022/07/19 10:42:08;;;;;;;9.30;8.50;;;;;;;34.09;24.78;100620.31;5048554;27;97892;-79
2022/07/19 10:44:35;;;;;;;8.15;7.63;;;;;;;34.19;25.43;100630.88;5050226;27;97667;-79
2022/07/19 10:47:01;;;;;;;8.20;7.60;;;;;;;34.15;24.71;100630.47;5036429;27;97456;-80
2022/07/19 10:49:47;;;;;;;9.10;8.20;;;;;;;33.91;24.67;100592.75;5035508;27;101055;-79
2022/07/19 10:52:27;;;;;;;8.60;8.00;;;;;;;34.08;24.67;100620.53;5044015;27;101599;-80
2022/07/19 10:55:25;;;;;;;8.77;8.13;;;;;;;34.01;24.54;100620.47;5037952;27;100227;-80
2022/07/19 10:58:09;;;;;;;8.98;7.97;;;;;;;33.83;24.42;100618.22;5018451;27;97312;-80
2022/07/19 11:00:53;;;;;;;11.77;10.98;;;;;;;33.71;23.40;100623.34;5015853;27;101020;-81
2022/07/19 11:03:21;;;;;;;6.20;5.80;;;;;;;33.70;24.16;100623.56;5014843;27;102065;-80
2022/07/19 11:06:01;;;;;;;7.43;6.80;;;;;;;33.58;23.86;100617.81;5049356;27;98417;-81
2022/07/19 11:08:40;;;;;;;7.75;6.63;;;;;;;33.47;23.96;100613.69;5038834;27;97366;-80
2022/07/19 11:11:10;;;;;;;8.13;7.27;;;;;;;33.46;23.21;100611.19;5029914;27;101865;-79
2022/07/19 11:13:37;;;;;;;8.20;7.40;;;;;;;33.33;24.11;100590.13;5036100;27;101025;-79
2022/07/19 11:16:03;;;;;;;8.35;7.75;;;;;;;33.30;23.53;100602.22;5031514;27;97350;-80
2022/07/19 11:18:29;;;;;;;7.90;7.30;;;;;;;33.32;24.28;100599.34;5033932;27;97497;-79